sensor_id;sensor_type;location;lat;lon;timestamp;pressure;altitude;pressure_sealevel;temperature;humidity
24031;BME280;12240;51.142;22.486;2023-06-24T00:00:27;99249.56;;;18.90;100.00
24031;BME280;12240;51.142;22.486;2023-06-24T00:02:55;99245.78;;;18.97;100.00
24031;BME280;12240;51.142;22.486;2023-06-24T00:05:24;99250.38;;;19.03;100.00
24031;BME280;12240;51.142;22.486;2023-06-24T00:07:52;99250.75;;;19.13;100.00
24031;BME280;12240;51.142;22.486;2023-06-24T00:10:20;99254.09;;;19.15;100.00
24031;BME280;12240;51.142;22.486;2023-06-24T00:12:48;99254.91;;;19.09;100.00
24031;BME280;12240;51.142;22.486;2023-06-24T00:15:17;99262.41;;;19.07;100.00
24031;BME280;12240;51.142;22.486;2023-06-24T00:17:45;99264.47;;;19.05;100.00
24031;BME280;12240;51.142;22.486;2023-06-24T00:20:13;99266.34;;;19.05;100.00
24031;BME280;12240;51.142;22.486;2023-06-24T00:22:42;99279.84;;;19.05;100.00
24031;BME280;12240;51.142;22.486;2023-06-24T00:25:12;99282.53;;;19.05;100.00
24031;BME280;12240;51.142;22.486;2023-06-24T00:27:41;99280.69;;;19.05;100.00
24031;BME280;12240;51.142;22.486;2023-06-24T00:30:11;99289.38;;;19.01;100.00
24031;BME280;12240;51.142;22.486;2023-06-24T00:32:40;99295.63;;;19.01;100.00
24031;BME280;12240;51.142;22.486;2023-06-24T00:35:09;99309.13;;;18.95;100.00
24031;BME280;12240;51.142;22.486;2023-06-24T00:37:40;99310.13;;;18.94;100.00
24031;BME280;12240;51.142;22.486;2023-06-24T00:40:14;99308.28;;;19.01;100.00
24031;BME280;12240;51.142;22.486;2023-06-24T00:42:45;99309.72;;;19.03;100.00
24031;BME280;12240;51.142;22.486;2023-06-24T00:45:14;99313.47;;;19.09;100.00
24031;BME280;12240;51.142;22.486;2023-06-24T00:47:45;99320.09;;;19.13;100.00
24031;BME280;12240;51.142;22.486;2023-06-24T00:50:15;99316.38;;;19.14;100.00
24031;BME280;12240;51.142;22.486;2023-06-24T00:52:43;99312.63;;;19.21;100.00
24031;BME280;12240;51.142;22.486;2023-06-24T00:55:13;99313.03;;;19.25;100.00
24031;BME280;12240;51.142;22.486;2023-06-24T00:57:44;99319.69;;;19.29;100.00
24031;BME280;12240;51.142;22.486;2023-06-24T01:00:14;99308.03;;;19.28;100.00
24031;BME280;12240;51.142;22.486;2023-06-24T01:02:47;99315.09;;;19.23;100.00
24031;BME280;12240;51.142;22.486;2023-06-24T01:05:16;99319.28;;;19.25;100.00
24031;BME280;12240;51.142;22.486;2023-06-24T01:07:46;99321.75;;;19.27;100.00
24031;BME280;12240;51.142;22.486;2023-06-24T01:10:23;99323.63;;;19.26;100.00
24031;BME280;12240;51.142;22.486;2023-06-24T01:12:52;99333.19;;;19.29;100.00
24031;BME280;12240;51.142;22.486;2023-06-24T01:15:21;99333.59;;;19.26;100.00
24031;BME280;12240;51.142;22.486;2023-06-24T01:18:06;99331.31;;;19.23;100.00
24031;BME280;12240;51.142;22.486;2023-06-24T01:27:02;99341.06;;;19.04;100.00
24031;BME280;12240;51.142;22.486;2023-06-24T01:30:03;99350.41;;;18.89;100.00
24031;BME280;12240;51.142;22.486;2023-06-24T01:32:54;99352.47;;;18.80;100.00
24031;BME280;12240;51.142;22.486;2023-06-24T01:35:32;99350.78;;;18.66;100.00
24031;BME280;12240;51.142;22.486;2023-06-24T01:38:15;99352.88;;;18.64;100.00
24031;BME280;12240;51.142;22.486;2023-06-24T01:40:46;99357.84;;;18.61;100.00
24031;BME280;12240;51.142;22.486;2023-06-24T01:43:16;99349.09;;;18.52;100.00
24031;BME280;12240;51.142;22.486;2023-06-24T01:45:50;99356.13;;;18.46;100.00
24031;BME280;12240;51.142;22.486;2023-06-24T01:48:29;99344.88;;;18.36;100.00
24031;BME280;12240;51.142;22.486;2023-06-24T01:51:13;99353.97;;;18.29;100.00
24031;BME280;12240;51.142;22.486;2023-06-24T01:53:51;99355.38;;;18.25;100.00
24031;BME280;12240;51.142;22.486;2023-06-24T01:56:22;99361.81;;;18.24;100.00
24031;BME280;12240;51.142;22.486;2023-06-24T01:58:53;99358.91;;;18.19;100.00
24031;BME280;12240;51.142;22.486;2023-06-24T02:01:22;99364.91;;;18.14;100.00
24031;BME280;12240;51.142;22.486;2023-06-24T02:03:52;99365.69;;;18.08;100.00
24031;BME280;12240;51.142;22.486;2023-06-24T02:06:24;99369.38;;;18.01;100.00
24031;BME280;12240;51.142;22.486;2023-06-24T02:08:56;99371.63;;;17.97;100.00
24031;BME280;12240;51.142;22.486;2023-06-24T02:11:28;99375.78;;;17.93;100.00
24031;BME280;12240;51.142;22.486;2023-06-24T02:13:57;99375.16;;;17.91;100.00
24031;BME280;12240;51.142;22.486;2023-06-24T02:16:28;99383.84;;;17.87;100.00
24031;BME280;12240;51.142;22.486;2023-06-24T02:18:57;99375.53;;;17.82;100.00
24031;BME280;12240;51.142;22.486;2023-06-24T02:21:26;99381.91;;;17.81;100.00
24031;BME280;12240;51.142;22.486;2023-06-24T02:23:54;99384.38;;;17.76;100.00
24031;BME280;12240;51.142;22.486;2023-06-24T02:26:23;99386.63;;;17.72;100.00
24031;BME280;12240;51.142;22.486;2023-06-24T02:28:53;99389.53;;;17.71;100.00
24031;BME280;12240;51.142;22.486;2023-06-24T02:31:22;99386.78;;;17.64;100.00
24031;BME280;12240;51.142;22.486;2023-06-24T02:33:51;99389.28;;;17.66;100.00
24031;BME280;12240;51.142;22.486;2023-06-24T02:36:19;99379.34;;;17.66;100.00
24031;BME280;12240;51.142;22.486;2023-06-24T02:38:48;99390.50;;;17.63;100.00
24031;BME280;12240;51.142;22.486;2023-06-24T02:41:17;99390.06;;;17.60;100.00
24031;BME280;12240;51.142;22.486;2023-06-24T02:43:45;99386.56;;;17.59;100.00
24031;BME280;12240;51.142;22.486;2023-06-24T02:46:14;99390.91;;;17.60;100.00
24031;BME280;12240;51.142;22.486;2023-06-24T02:48:45;99388.66;;;17.64;100.00
24031;BME280;12240;51.142;22.486;2023-06-24T02:51:14;99398.00;;;17.68;100.00
24031;BME280;12240;51.142;22.486;2023-06-24T02:53:43;99394.28;;;17.69;100.00
24031;BME280;12240;51.142;22.486;2023-06-24T02:56:15;99391.19;;;17.72;100.00
24031;BME280;12240;51.142;22.486;2023-06-24T02:58:50;99403.00;;;17.71;100.00
24031;BME280;12240;51.142;22.486;2023-06-24T03:01:24;99391.81;;;17.74;100.00
24031;BME280;12240;51.142;22.486;2023-06-24T03:03:55;99405.03;;;17.69;100.00
24031;BME280;12240;51.142;22.486;2023-06-24T03:06:23;99410.47;;;17.75;100.00
24031;BME280;12240;51.142;22.486;2023-06-24T03:08:56;99418.56;;;17.75;100.00
24031;BME280;12240;51.142;22.486;2023-06-24T03:11:26;99418.78;;;17.80;100.00
24031;BME280;12240;51.142;22.486;2023-06-24T03:13:59;99403.47;;;17.81;100.00
24031;BME280;12240;51.142;22.486;2023-06-24T03:16:41;99417.13;;;17.79;100.00
24031;BME280;12240;51.142;22.486;2023-06-24T03:19:15;99419.66;;;17.87;100.00
24031;BME280;12240;51.142;22.486;2023-06-24T03:21:45;99428.19;;;17.91;100.00
24031;BME280;12240;51.142;22.486;2023-06-24T03:24:15;99427.19;;;17.92;100.00
24031;BME280;12240;51.142;22.486;2023-06-24T03:26:48;99431.75;;;17.98;100.00
24031;BME280;12240;51.142;22.486;2023-06-24T03:29:17;99433.25;;;18.07;100.00
24031;BME280;12240;51.142;22.486;2023-06-24T03:31:54;99442.88;;;18.16;100.00
24031;BME280;12240;51.142;22.486;2023-06-24T03:34:25;99442.66;;;18.17;100.00
24031;BME280;12240;51.142;22.486;2023-06-24T03:36:54;99438.94;;;18.25;100.00
24031;BME280;12240;51.142;22.486;2023-06-24T03:39:23;99431.09;;;18.30;100.00
24031;BME280;12240;51.142;22.486;2023-06-24T03:41:51;99423.88;;;18.37;100.00
24031;BME280;12240;51.142;22.486;2023-06-24T03:44:19;99422.66;;;18.39;100.00
24031;BME280;12240;51.142;22.486;2023-06-24T03:46:48;99420.00;;;18.46;100.00
24031;BME280;12240;51.142;22.486;2023-06-24T03:49:16;99420.63;;;18.48;100.00
24031;BME280;12240;51.142;22.486;2023-06-24T03:51:45;99418.78;;;18.48;100.00
24031;BME280;12240;51.142;22.486;2023-06-24T03:54:14;99422.50;;;18.47;100.00
24031;BME280;12240;51.142;22.486;2023-06-24T03:56:42;99425.41;;;18.52;100.00
24031;BME280;12240;51.142;22.486;2023-06-24T03:59:10;99440.59;;;18.60;100.00
24031;BME280;12240;51.142;22.486;2023-06-24T04:01:38;99433.56;;;18.59;100.00
24031;BME280;12240;51.142;22.486;2023-06-24T04:04:07;99434.78;;;18.56;100.00
24031;BME280;12240;51.142;22.486;2023-06-24T04:06:35;99442.88;;;18.56;100.00
24031;BME280;12240;51.142;22.486;2023-06-24T04:09:03;99444.09;;;18.54;100.00
24031;BME280;12240;51.142;22.486;2023-06-24T04:11:32;99441.22;;;18.55;100.00
24031;BME280;12240;51.142;22.486;2023-06-24T04:14:01;99443.47;;;18.52;100.00
24031;BME280;12240;51.142;22.486;2023-06-24T04:16:29;99438.91;;;18.52;100.00
24031;BME280;12240;51.142;22.486;2023-06-24T04:18:58;99448.66;;;18.47;100.00
24031;BME280;12240;51.142;22.486;2023-06-24T04:21:26;99446.75;;;18.47;100.00
24031;BME280;12240;51.142;22.486;2023-06-24T04:23:54;99447.59;;;18.41;100.00
24031;BME280;12240;51.142;22.486;2023-06-24T04:26:22;99452.28;;;18.33;100.00
24031;BME280;12240;51.142;22.486;2023-06-24T04:28:50;99455.22;;;18.38;100.00
24031;BME280;12240;51.142;22.486;2023-06-24T04:31:19;99453.28;;;18.32;100.00
24031;BME280;12240;51.142;22.486;2023-06-24T04:33:47;99453.41;;;18.45;100.00
24031;BME280;12240;51.142;22.486;2023-06-24T04:36:15;99456.97;;;18.52;100.00
24031;BME280;12240;51.142;22.486;2023-06-24T04:38:44;99460.69;;;18.57;100.00
24031;BME280;12240;51.142;22.486;2023-06-24T04:41:12;99473.81;;;18.67;100.00
24031;BME280;12240;51.142;22.486;2023-06-24T04:43:40;99477.81;;;18.78;100.00
24031;BME280;12240;51.142;22.486;2023-06-24T04:46:08;99480.53;;;18.91;100.00
24031;BME280;12240;51.142;22.486;2023-06-24T04:48:37;99476.19;;;18.90;100.00
24031;BME280;12240;51.142;22.486;2023-06-24T04:51:05;99476.84;;;19.05;100.00
24031;BME280;12240;51.142;22.486;2023-06-24T04:53:33;99472.09;;;19.13;100.00
24031;BME280;12240;51.142;22.486;2023-06-24T04:56:01;99469.41;;;19.26;100.00
24031;BME280;12240;51.142;22.486;2023-06-24T04:58:29;99469.25;;;19.34;100.00
24031;BME280;12240;51.142;22.486;2023-06-24T05:00:57;99470.50;;;19.51;100.00
24031;BME280;12240;51.142;22.486;2023-06-24T05:03:26;99469.47;;;19.59;100.00
24031;BME280;12240;51.142;22.486;2023-06-24T05:05:54;99475.50;;;19.48;100.00
24031;BME280;12240;51.142;22.486;2023-06-24T05:08:23;99472.94;;;19.07;100.00
24031;BME280;12240;51.142;22.486;2023-06-24T05:10:51;99484.63;;;19.34;100.00
24031;BME280;12240;51.142;22.486;2023-06-24T05:13:19;99490.63;;;19.29;100.00
24031;BME280;12240;51.142;22.486;2023-06-24T05:15:48;99489.78;;;19.22;100.00
24031;BME280;12240;51.142;22.486;2023-06-24T05:18:16;99486.66;;;19.19;100.00
24031;BME280;12240;51.142;22.486;2023-06-24T05:20:44;99484.38;;;19.22;100.00
24031;BME280;12240;51.142;22.486;2023-06-24T05:23:12;99483.72;;;19.20;100.00
24031;BME280;12240;51.142;22.486;2023-06-24T05:25:40;99476.94;;;19.37;100.00
24031;BME280;12240;51.142;22.486;2023-06-24T05:28:08;99476.53;;;19.66;100.00
24031;BME280;12240;51.142;22.486;2023-06-24T05:30:36;99491.06;;;19.85;100.00
24031;BME280;12240;51.142;22.486;2023-06-24T05:33:04;99478.75;;;20.35;100.00
24031;BME280;12240;51.142;22.486;2023-06-24T05:35:34;99475.41;;;20.46;100.00
24031;BME280;12240;51.142;22.486;2023-06-24T05:38:06;99468.28;;;20.58;100.00
24031;BME280;12240;51.142;22.486;2023-06-24T05:40:34;99461.47;;;20.86;100.00
24031;BME280;12240;51.142;22.486;2023-06-24T05:43:02;99456.31;;;20.78;100.00
24031;BME280;12240;51.142;22.486;2023-06-24T05:45:31;99473.59;;;21.84;100.00
24031;BME280;12240;51.142;22.486;2023-06-24T05:47:59;99456.00;;;22.11;100.00
24031;BME280;12240;51.142;22.486;2023-06-24T05:50:27;99443.63;;;22.58;100.00
24031;BME280;12240;51.142;22.486;2023-06-24T05:52:55;99438.41;;;22.86;100.00
24031;BME280;12240;51.142;22.486;2023-06-24T05:55:23;99447.63;;;22.13;100.00
24031;BME280;12240;51.142;22.486;2023-06-24T05:57:51;99451.66;;;21.85;100.00
24031;BME280;12240;51.142;22.486;2023-06-24T06:00:21;99452.31;;;22.42;100.00
24031;BME280;12240;51.142;22.486;2023-06-24T06:02:49;99458.81;;;22.59;100.00
24031;BME280;12240;51.142;22.486;2023-06-24T06:05:18;99457.09;;;22.04;100.00
24031;BME280;12240;51.142;22.486;2023-06-24T06:07:46;99456.22;;;22.10;100.00
24031;BME280;12240;51.142;22.486;2023-06-24T06:10:14;99463.81;;;21.76;100.00
24031;BME280;12240;51.142;22.486;2023-06-24T06:12:45;99475.56;;;21.70;100.00
24031;BME280;12240;51.142;22.486;2023-06-24T06:15:13;99480.81;;;21.34;100.00
24031;BME280;12240;51.142;22.486;2023-06-24T06:17:41;99468.47;;;21.07;100.00
24031;BME280;12240;51.142;22.486;2023-06-24T06:20:10;99474.84;;;21.50;100.00
24031;BME280;12240;51.142;22.486;2023-06-24T06:22:38;99478.31;;;21.88;100.00
24031;BME280;12240;51.142;22.486;2023-06-24T06:25:07;99463.28;;;21.92;100.00
24031;BME280;12240;51.142;22.486;2023-06-24T06:27:36;99469.94;;;22.33;100.00
24031;BME280;12240;51.142;22.486;2023-06-24T06:30:05;99450.13;;;22.50;100.00
24031;BME280;12240;51.142;22.486;2023-06-24T06:32:33;99445.84;;;22.61;100.00
24031;BME280;12240;51.142;22.486;2023-06-24T06:35:02;99453.00;;;22.37;100.00
24031;BME280;12240;51.142;22.486;2023-06-24T06:37:30;99448.38;;;21.77;100.00
24031;BME280;12240;51.142;22.486;2023-06-24T06:39:58;99449.19;;;21.84;100.00
24031;BME280;12240;51.142;22.486;2023-06-24T06:42:26;99458.63;;;22.18;100.00
24031;BME280;12240;51.142;22.486;2023-06-24T06:44:54;99456.22;;;22.28;100.00
24031;BME280;12240;51.142;22.486;2023-06-24T06:47:23;99447.63;;;22.13;100.00
24031;BME280;12240;51.142;22.486;2023-06-24T06:49:51;99453.41;;;22.59;100.00
24031;BME280;12240;51.142;22.486;2023-06-24T06:52:19;99427.47;;;22.63;100.00
24031;BME280;12240;51.142;22.486;2023-06-24T06:54:47;99431.75;;;23.00;100.00
24031;BME280;12240;51.142;22.486;2023-06-24T06:57:16;99421.19;;;23.86;100.00
24031;BME280;12240;51.142;22.486;2023-06-24T06:59:44;99434.78;;;24.44;100.00
24031;BME280;12240;51.142;22.486;2023-06-24T07:02:12;99429.88;;;24.97;100.00
24031;BME280;12240;51.142;22.486;2023-06-24T07:04:40;99427.78;;;25.60;100.00
24031;BME280;12240;51.142;22.486;2023-06-24T07:07:09;99402.78;;;26.01;100.00
24031;BME280;12240;51.142;22.486;2023-06-24T07:09:37;99393.75;;;26.17;100.00
24031;BME280;12240;51.142;22.486;2023-06-24T07:12:07;99401.56;;;26.30;100.00
24031;BME280;12240;51.142;22.486;2023-06-24T07:14:35;99384.25;;;26.85;100.00
24031;BME280;12240;51.142;22.486;2023-06-24T07:17:03;99384.69;;;26.77;100.00
24031;BME280;12240;51.142;22.486;2023-06-24T07:19:32;99372.72;;;27.09;100.00
24031;BME280;12240;51.142;22.486;2023-06-24T07:22:00;99359.09;;;26.39;100.00
24031;BME280;12240;51.142;22.486;2023-06-24T07:24:28;99361.44;;;26.53;100.00
24031;BME280;12240;51.142;22.486;2023-06-24T07:26:56;99398.94;;;27.05;100.00
24031;BME280;12240;51.142;22.486;2023-06-24T07:29:24;99401.81;;;27.52;100.00
24031;BME280;12240;51.142;22.486;2023-06-24T07:31:53;99394.97;;;26.70;100.00
24031;BME280;12240;51.142;22.486;2023-06-24T07:34:21;99410.91;;;25.80;100.00
24031;BME280;12240;51.142;22.486;2023-06-24T07:36:49;99405.59;;;26.06;100.00
24031;BME280;12240;51.142;22.486;2023-06-24T07:39:18;99411.22;;;26.00;100.00
24031;BME280;12240;51.142;22.486;2023-06-24T07:41:46;99436.38;;;25.07;100.00
24031;BME280;12240;51.142;22.486;2023-06-24T07:44:14;99427.84;;;25.04;100.00
24031;BME280;12240;51.142;22.486;2023-06-24T07:46:43;99447.53;;;26.00;100.00
24031;BME280;12240;51.142;22.486;2023-06-24T07:49:11;99445.53;;;25.79;100.00
24031;BME280;12240;51.142;22.486;2023-06-24T07:51:39;99451.06;;;26.01;100.00
24031;BME280;12240;51.142;22.486;2023-06-24T07:54:07;99464.31;;;26.09;100.00
24031;BME280;12240;51.142;22.486;2023-06-24T07:56:35;99461.41;;;24.93;100.00
24031;BME280;12240;51.142;22.486;2023-06-24T07:59:03;99471.72;;;24.91;100.00
24031;BME280;12240;51.142;22.486;2023-06-24T08:01:31;99487.19;;;25.58;100.00
24031;BME280;12240;51.142;22.486;2023-06-24T08:03:59;99494.25;;;26.20;100.00
24031;BME280;12240;51.142;22.486;2023-06-24T08:06:28;99491.84;;;24.90;100.00
24031;BME280;12240;51.142;22.486;2023-06-24T08:08:56;99494.50;;;24.62;100.00
24031;BME280;12240;51.142;22.486;2023-06-24T08:11:25;99489.13;;;25.18;100.00
24031;BME280;12240;51.142;22.486;2023-06-24T08:13:53;99500.31;;;25.61;100.00
24031;BME280;12240;51.142;22.486;2023-06-24T08:16:21;99487.50;;;25.78;100.00
24031;BME280;12240;51.142;22.486;2023-06-24T08:18:50;99478.19;;;25.74;100.00
24031;BME280;12240;51.142;22.486;2023-06-24T08:21:18;99485.44;;;25.24;100.00
24031;BME280;12240;51.142;22.486;2023-06-24T08:23:49;99495.94;;;25.44;100.00
24031;BME280;12240;51.142;22.486;2023-06-24T08:26:21;99501.00;;;25.68;100.00
24031;BME280;12240;51.142;22.486;2023-06-24T08:28:49;99515.34;;;26.08;100.00
24031;BME280;12240;51.142;22.486;2023-06-24T08:31:19;99509.16;;;25.68;100.00
24031;BME280;12240;51.142;22.486;2023-06-24T08:33:54;99504.75;;;25.51;100.00
24031;BME280;12240;51.142;22.486;2023-06-24T08:36:23;99520.47;;;26.05;100.00
24031;BME280;12240;51.142;22.486;2023-06-24T08:38:54;99495.53;;;24.84;100.00
24031;BME280;12240;51.142;22.486;2023-06-24T08:41:23;99511.75;;;23.75;100.00
24031;BME280;12240;51.142;22.486;2023-06-24T08:43:53;99517.41;;;25.00;100.00
24031;BME280;12240;51.142;22.486;2023-06-24T08:46:25;99497.78;;;25.15;100.00
24031;BME280;12240;51.142;22.486;2023-06-24T08:49:21;99502.50;;;25.59;100.00
24031;BME280;12240;51.142;22.486;2023-06-24T08:54:31;99495.81;;;24.48;100.00
24031;BME280;12240;51.142;22.486;2023-06-24T08:57:03;99501.97;;;24.78;100.00
24031;BME280;12240;51.142;22.486;2023-06-24T08:59:36;99501.25;;;24.59;100.00
24031;BME280;12240;51.142;22.486;2023-06-24T09:02:05;99500.28;;;25.16;100.00
24031;BME280;12240;51.142;22.486;2023-06-24T09:04:35;99495.22;;;25.98;100.00
24031;BME280;12240;51.142;22.486;2023-06-24T09:07:03;99492.19;;;26.49;100.00
24031;BME280;12240;51.142;22.486;2023-06-24T09:09:43;99486.31;;;26.57;100.00
24031;BME280;12240;51.142;22.486;2023-06-24T09:12:14;99500.94;;;26.68;100.00
24031;BME280;12240;51.142;22.486;2023-06-24T09:14:49;99485.44;;;25.85;100.00
24031;BME280;12240;51.142;22.486;2023-06-24T09:17:18;99480.34;;;26.43;100.00
24031;BME280;12240;51.142;22.486;2023-06-24T09:19:51;99478.69;;;26.04;100.00
24031;BME280;12240;51.142;22.486;2023-06-24T09:22:19;99466.44;;;25.74;96.68
24031;BME280;12240;51.142;22.486;2023-06-24T09:24:48;99502.84;;;26.12;100.00
24031;BME280;12240;51.142;22.486;2023-06-24T09:27:18;99500.44;;;26.71;100.00
24031;BME280;12240;51.142;22.486;2023-06-24T09:29:49;99490.31;;;27.14;100.00
24031;BME280;12240;51.142;22.486;2023-06-24T09:32:18;99498.69;;;27.56;100.00
24031;BME280;12240;51.142;22.486;2023-06-24T09:34:46;99480.56;;;27.23;97.63
24031;BME280;12240;51.142;22.486;2023-06-24T09:37:21;99489.34;;;27.52;97.63
24031;BME280;12240;51.142;22.486;2023-06-24T09:39:59;99505.41;;;26.74;98.97
24031;BME280;12240;51.142;22.486;2023-06-24T09:42:29;99511.16;;;25.89;100.00
24031;BME280;12240;51.142;22.486;2023-06-24T09:44:57;99509.91;;;25.80;100.00
24031;BME280;12240;51.142;22.486;2023-06-24T09:47:25;99516.00;;;25.54;100.00
24031;BME280;12240;51.142;22.486;2023-06-24T09:49:55;99537.31;;;26.18;100.00
24031;BME280;12240;51.142;22.486;2023-06-24T09:52:23;99512.50;;;26.20;98.50
24031;BME280;12240;51.142;22.486;2023-06-24T09:54:52;99518.66;;;26.87;98.94
24031;BME280;12240;51.142;22.486;2023-06-24T09:57:29;99521.56;;;26.42;97.45
24031;BME280;12240;51.142;22.486;2023-06-24T09:59:59;99525.44;;;25.63;98.49
24031;BME280;12240;51.142;22.486;2023-06-24T10:02:29;99524.69;;;25.23;98.19
24031;BME280;12240;51.142;22.486;2023-06-24T10:05:00;99527.75;;;25.55;99.31
24031;BME280;12240;51.142;22.486;2023-06-24T10:07:30;99551.97;;;26.12;100.00
24031;BME280;12240;51.142;22.486;2023-06-24T10:10:03;99524.28;;;25.31;99.23
24031;BME280;12240;51.142;22.486;2023-06-24T10:12:31;99521.38;;;25.21;98.26
24031;BME280;12240;51.142;22.486;2023-06-24T10:15:00;99521.44;;;25.38;97.42
24031;BME280;12240;51.142;22.486;2023-06-24T10:17:30;99524.78;;;25.56;96.76
24031;BME280;12240;51.142;22.486;2023-06-24T10:19:58;99525.16;;;26.09;97.33
24031;BME280;12240;51.142;22.486;2023-06-24T10:22:32;99520.84;;;26.47;94.68
24031;BME280;12240;51.142;22.486;2023-06-24T10:25:05;99520.28;;;26.83;93.28
24031;BME280;12240;51.142;22.486;2023-06-24T10:27:41;99516.53;;;27.10;93.97
24031;BME280;12240;51.142;22.486;2023-06-24T10:30:18;99508.53;;;26.11;93.10
24031;BME280;12240;51.142;22.486;2023-06-24T10:32:56;99506.88;;;26.26;93.51
24031;BME280;12240;51.142;22.486;2023-06-24T10:35:27;99505.22;;;25.92;92.61
24031;BME280;12240;51.142;22.486;2023-06-24T10:38:00;99516.31;;;26.74;94.20
24031;BME280;12240;51.142;22.486;2023-06-24T10:40:39;99520.47;;;27.24;96.05
24031;BME280;12240;51.142;22.486;2023-06-24T10:43:28;99524.19;;;27.62;95.61
24031;BME280;12240;51.142;22.486;2023-06-24T10:45:58;99499.13;;;27.75;90.66
24031;BME280;12240;51.142;22.486;2023-06-24T10:48:27;99522.38;;;28.35;93.68
24031;BME280;12240;51.142;22.486;2023-06-24T10:50:55;99499.00;;;28.23;89.06
24031;BME280;12240;51.142;22.486;2023-06-24T10:53:24;99512.41;;;28.19;91.43
24031;BME280;12240;51.142;22.486;2023-06-24T10:55:52;99501.00;;;28.32;87.08
24031;BME280;12240;51.142;22.486;2023-06-24T10:58:25;99529.53;;;28.88;91.53
24031;BME280;12240;51.142;22.486;2023-06-24T11:00:53;99507.38;;;28.95;88.16
24031;BME280;12240;51.142;22.486;2023-06-24T11:03:21;99493.59;;;27.91;85.86
24031;BME280;12240;51.142;22.486;2023-06-24T11:05:50;99508.13;;;25.86;86.18
24031;BME280;12240;51.142;22.486;2023-06-24T11:08:18;99513.81;;;25.68;86.95
24031;BME280;12240;51.142;22.486;2023-06-24T11:10:48;99528.56;;;26.33;89.03
24031;BME280;12240;51.142;22.486;2023-06-24T11:13:20;99525.94;;;27.24;87.97
24031;BME280;12240;51.142;22.486;2023-06-24T11:15:48;99506.66;;;27.09;83.98
24031;BME280;12240;51.142;22.486;2023-06-24T11:18:17;99521.38;;;27.83;86.77
24031;BME280;12240;51.142;22.486;2023-06-24T11:20:45;99493.28;;;27.13;82.78
24031;BME280;12240;51.142;22.486;2023-06-24T11:23:13;99511.38;;;27.14;83.74
24031;BME280;12240;51.142;22.486;2023-06-24T11:25:43;99516.78;;;27.30;83.70
24031;BME280;12240;51.142;22.486;2023-06-24T11:28:17;99517.16;;;27.17;84.41
24031;BME280;12240;51.142;22.486;2023-06-24T11:30:51;99510.09;;;27.00;82.75
24031;BME280;12240;51.142;22.486;2023-06-24T11:33:29;99524.06;;;27.25;84.21
24031;BME280;12240;51.142;22.486;2023-06-24T11:35:58;99504.34;;;26.03;82.40
24031;BME280;12240;51.142;22.486;2023-06-24T11:38:28;99512.75;;;26.18;82.45
24031;BME280;12240;51.142;22.486;2023-06-24T11:41:00;99517.13;;;26.19;83.14
24031;BME280;12240;51.142;22.486;2023-06-24T11:43:28;99509.78;;;26.36;83.31
24031;BME280;12240;51.142;22.486;2023-06-24T11:45:56;99534.56;;;27.33;86.99
24031;BME280;12240;51.142;22.486;2023-06-24T11:48:29;99516.66;;;27.74;83.53
24031;BME280;12240;51.142;22.486;2023-06-24T11:50:58;99496.44;;;26.78;82.32
24031;BME280;12240;51.142;22.486;2023-06-24T11:53:30;99516.50;;;26.51;84.04
24031;BME280;12240;51.142;22.486;2023-06-24T11:56:09;99517.13;;;26.19;84.98
24031;BME280;12240;51.142;22.486;2023-06-24T11:58:37;99520.59;;;26.31;84.20
24031;BME280;12240;51.142;22.486;2023-06-24T12:01:08;99514.19;;;26.21;85.39
24031;BME280;12240;51.142;22.486;2023-06-24T12:03:37;99523.69;;;26.18;84.86
24031;BME280;12240;51.142;22.486;2023-06-24T12:06:05;99523.63;;;27.11;89.31
24031;BME280;12240;51.142;22.486;2023-06-24T12:08:33;99516.81;;;26.54;85.65
24031;BME280;12240;51.142;22.486;2023-06-24T12:11:19;99524.13;;;27.30;86.70
24031;BME280;12240;51.142;22.486;2023-06-24T12:13:47;99519.56;;;27.62;87.62
24031;BME280;12240;51.142;22.486;2023-06-24T12:16:17;99501.84;;;26.95;84.38
24031;BME280;12240;51.142;22.486;2023-06-24T12:18:45;99516.72;;;26.11;86.41
24031;BME280;12240;51.142;22.486;2023-06-24T12:21:13;99516.41;;;25.46;87.71
24031;BME280;12240;51.142;22.486;2023-06-24T12:23:42;99530.53;;;25.43;89.72
24031;BME280;12240;51.142;22.486;2023-06-24T12:26:10;99527.47;;;25.00;90.81
24031;BME280;12240;51.142;22.486;2023-06-24T12:28:38;99533.84;;;25.45;92.08
24031;BME280;12240;51.142;22.486;2023-06-24T12:31:06;99514.75;;;25.17;89.60
24031;BME280;12240;51.142;22.486;2023-06-24T12:33:34;99527.13;;;25.64;91.47
24031;BME280;12240;51.142;22.486;2023-06-24T12:36:03;99544.50;;;25.91;93.42
24031;BME280;12240;51.142;22.486;2023-06-24T12:38:31;99547.59;;;26.28;93.20
24031;BME280;12240;51.142;22.486;2023-06-24T12:40:59;99543.16;;;25.77;93.69
24031;BME280;12240;51.142;22.486;2023-06-24T12:43:28;99540.00;;;25.01;94.52
24031;BME280;12240;51.142;22.486;2023-06-24T12:45:57;99552.41;;;24.69;97.51
24031;BME280;12240;51.142;22.486;2023-06-24T12:48:25;99552.22;;;25.66;98.22
24031;BME280;12240;51.142;22.486;2023-06-24T12:50:53;99549.13;;;26.40;96.32
24031;BME280;12240;51.142;22.486;2023-06-24T12:53:22;99525.03;;;26.71;92.37
24031;BME280;12240;51.142;22.486;2023-06-24T12:55:50;99539.50;;;26.55;92.94
24031;BME280;12240;51.142;22.486;2023-06-24T12:58:23;99526.09;;;26.70;90.55
24031;BME280;12240;51.142;22.486;2023-06-24T13:00:52;99517.84;;;27.56;89.98
24031;BME280;12240;51.142;22.486;2023-06-24T13:03:21;99531.88;;;28.59;89.85
24031;BME280;12240;51.142;22.486;2023-06-24T13:05:49;99495.88;;;27.78;84.07